Superferry II — SWKV — position and weather

sailwx.info

Track history (hours):
 
Tides and Currents Weather Stations Pressure Air Temp Water Temp Dewpoint Dewpoint Depression Visibility Wind Speed Wind Dir Waves Ship Positions

Superferry II

Last reported at 2015-Apr-18 11:33 UTC. Time now 2015-Apr-18 11:37 UTC.
Position N 37°32' E 025°09'.

Length 122 m; draft 4.7 m.

Type: Passenger vessel. MMSI: 237001000.

Date/timePositionNaut miles runAvg speedWind from/ knotsBaromVisibWave heightAir tempDewpointWater temp
2015-Apr-18 11:33N 37°32' E 025°09'9 8.8
2015-Apr-18 10:31N 37°28' E 025°19'0 0.0
2015-Apr-18 09:34N 37°28' E 025°19'1313.0
2015-Apr-18 08:33N 37°34' E 025°05'4815.8
2015-Apr-18 05:29N 37°58' E 024°12'8 0.9
2015-Apr-17 20:26N 38°01' E 024°03'13 3.8
2015-Apr-17 17:07N 37°57' E 024°18'1119.0
2015-Apr-17 16:33N 38°00' E 024°05'1 0.5
2015-Apr-17 15:22N 38°01' E 024°05'5815.1
2015-Apr-17 11:32N 37°32' E 025°09'9 9.3
2015-Apr-17 10:33N 37°28' E 025°20'0 0.0
2015-Apr-17 09:33N 37°28' E 025°20'19 0.9
2015-Apr-16 12:14N 37°38' E 024°59'1015.3
2015-Apr-16 11:33N 37°32' E 025°09'9 9.1
2015-Apr-16 10:33N 37°28' E 025°19'0 0.0
2015-Apr-16 09:33N 37°28' E 025°19'1211.5
2015-Apr-16 08:33N 37°33' E 025°06'59 4.9
2015-Apr-15 20:26N 38°01' E 024°01'53 6.4
2015-Apr-15 12:12N 37°37' E 025°00'913.7
2015-Apr-15 11:33N 37°32' E 025°09'9 9.1
2015-Apr-15 10:33N 37°28' E 025°19'0 0.0
2015-Apr-15 09:33N 37°28' E 025°19'1211.2
2015-Apr-15 08:27N 37°34' E 025°05'57 4.7
2015-Apr-14 20:23N 38°01' E 024°03'4 1.0
2015-Apr-14 16:33N 37°60' E 024°07'3 3.1
2015-Apr-14 15:33N 38°01' E 024°03'4814.7
2015-Apr-14 12:15N 37°39' E 024°58'1116.1
2015-Apr-14 11:33N 37°32' E 025°09'9 9.1
2015-Apr-14 10:33N 37°28' E 025°19'0 0.0
2015-Apr-14 09:33N 37°28' E 025°19'1110.5
2015-Apr-14 08:33N 37°32' E 025°07'5516.4
2015-Apr-14 05:14N 37°59' E 024°08'6 6.6
2015-Apr-14 04:22N 38°01' E 024°01'0 0.0
2015-Apr-14 03:09N 38°01' E 024°01'0 0.0
2015-Apr-14 02:25N 38°01' E 024°01'0 0.0
2015-Apr-14 01:30N 38°01' E 024°01'0 0.0
2015-Apr-14 00:33N 38°01' E 024°01'0 0.0
2015-Apr-13 23:27N 38°01' E 024°01'0 0.0
2015-Apr-13 22:32N 38°01' E 024°01'0 0.0
2015-Apr-13 21:29N 38°01' E 024°01'4 4.2
2015-Apr-13 20:32N 38°00' E 024°06'1 0.2
2015-Apr-13 16:33N 38°01' E 024°05'3 3.2
2015-Apr-13 15:33N 38°01' E 024°01'5315.2
2015-Apr-13 12:05N 37°37' E 025°00'917.0
2015-Apr-13 11:33N 37°32' E 025°09'9 9.2
2015-Apr-13 10:33N 37°28' E 025°19'0 0.0
2015-Apr-13 09:33N 37°28' E 025°19'1211.5
2015-Apr-13 08:33N 37°33' E 025°06'5216.6
2015-Apr-13 05:27N 37°59' E 024°10'44 1.0
2015-Apr-11 11:06N 37°38' E 024°59'1018.5
2015-Apr-11 10:33N 37°31' E 025°09'7 6.5
2015-Apr-11 09:33N 37°28' E 025°16'1312.2
2015-Apr-11 08:28N 37°36' E 025°02'4515.5
2015-Apr-11 05:32N 37°58' E 024°13'9 2.1
2015-Apr-11 01:32N 38°01' E 024°02'5819.2
2015-Apr-10 22:32N 37°33' E 025°06'1212.0
2015-Apr-10 21:33N 37°28' E 025°19'9 9.0
2015-Apr-10 20:33N 37°32' E 025°09'5513.5
2015-Apr-10 16:28N 37°59' E 024°08'6 0.2
2015-Apr-09 14:27N 38°01' E 024°01'5217.6
2015-Apr-09 11:30N 37°37' E 024°59'1718.2
2015-Apr-09 10:33N 37°28' E 025°17'6 5.9
2015-Apr-09 09:34N 37°31' E 025°11'10 9.5
2015-Apr-09 08:33N 37°36' E 025°01'4914.8
2015-Apr-09 05:16N 37°60' E 024°07'6 0.5
2015-Apr-08 17:09N 37°58' E 024°14'9 5.2
2015-Apr-08 15:23N 38°01' E 024°03'4815.4
2015-Apr-08 12:18N 37°40' E 024°57'  
Track history (hours):
 
Tides and Currents Weather Stations Pressure Air Temp Water Temp Dewpoint Dewpoint Depression Visibility Wind Speed Wind Dir Waves Ship Positions

Superferry II

Last reported at 2015-Apr-18 11:33 UTC. Time now 2015-Apr-18 11:37 UTC.
Position N 37°32' E 025°09'.

Length 122 m; draft 4.7 m.

Type: Passenger vessel. MMSI: 237001000.

Date/timePositionNaut miles runAvg speedWind from/ knotsBaromVisibWave heightAir tempDewpointWater temp
2015-Apr-18 11:33N 37°32' E 025°09'9 8.8
2015-Apr-18 10:31N 37°28' E 025°19'0 0.0
2015-Apr-18 09:34N 37°28' E 025°19'1313.0
2015-Apr-18 08:33N 37°34' E 025°05'4815.8
2015-Apr-18 05:29N 37°58' E 024°12'8 0.9
2015-Apr-17 20:26N 38°01' E 024°03'13 3.8
2015-Apr-17 17:07N 37°57' E 024°18'1119.0
2015-Apr-17 16:33N 38°00' E 024°05'1 0.5
2015-Apr-17 15:22N 38°01' E 024°05'5815.1
2015-Apr-17 11:32N 37°32' E 025°09'9 9.3
2015-Apr-17 10:33N 37°28' E 025°20'0 0.0
2015-Apr-17 09:33N 37°28' E 025°20'19 0.9
2015-Apr-16 12:14N 37°38' E 024°59'1015.3
2015-Apr-16 11:33N 37°32' E 025°09'9 9.1
2015-Apr-16 10:33N 37°28' E 025°19'0 0.0
2015-Apr-16 09:33N 37°28' E 025°19'1211.5
2015-Apr-16 08:33N 37°33' E 025°06'59 4.9
2015-Apr-15 20:26N 38°01' E 024°01'53 6.4
2015-Apr-15 12:12N 37°37' E 025°00'913.7
2015-Apr-15 11:33N 37°32' E 025°09'9 9.1
2015-Apr-15 10:33N 37°28' E 025°19'0 0.0
2015-Apr-15 09:33N 37°28' E 025°19'1211.2
2015-Apr-15 08:27N 37°34' E 025°05'57 4.7
2015-Apr-14 20:23N 38°01' E 024°03'4 1.0
2015-Apr-14 16:33N 37°60' E 024°07'3 3.1
2015-Apr-14 15:33N 38°01' E 024°03'4814.7
2015-Apr-14 12:15N 37°39' E 024°58'1116.1
2015-Apr-14 11:33N 37°32' E 025°09'9 9.1
2015-Apr-14 10:33N 37°28' E 025°19'0 0.0
2015-Apr-14 09:33N 37°28' E 025°19'1110.5
2015-Apr-14 08:33N 37°32' E 025°07'5516.4
2015-Apr-14 05:14N 37°59' E 024°08'6 6.6
2015-Apr-14 04:22N 38°01' E 024°01'0 0.0
2015-Apr-14 03:09N 38°01' E 024°01'0 0.0
2015-Apr-14 02:25N 38°01' E 024°01'0 0.0
2015-Apr-14 01:30N 38°01' E 024°01'0 0.0
2015-Apr-14 00:33N 38°01' E 024°01'0 0.0
2015-Apr-13 23:27N 38°01' E 024°01'0 0.0
2015-Apr-13 22:32N 38°01' E 024°01'0 0.0
2015-Apr-13 21:29N 38°01' E 024°01'4 4.2
2015-Apr-13 20:32N 38°00' E 024°06'1 0.2
2015-Apr-13 16:33N 38°01' E 024°05'3 3.2
2015-Apr-13 15:33N 38°01' E 024°01'5315.2
2015-Apr-13 12:05N 37°37' E 025°00'917.0
2015-Apr-13 11:33N 37°32' E 025°09'9 9.2
2015-Apr-13 10:33N 37°28' E 025°19'0 0.0
2015-Apr-13 09:33N 37°28' E 025°19'1211.5
2015-Apr-13 08:33N 37°33' E 025°06'5216.6
2015-Apr-13 05:27N 37°59' E 024°10'44 1.0
2015-Apr-11 11:06N 37°38' E 024°59'1018.5
2015-Apr-11 10:33N 37°31' E 025°09'7 6.5
2015-Apr-11 09:33N 37°28' E 025°16'1312.2
2015-Apr-11 08:28N 37°36' E 025°02'4515.5
2015-Apr-11 05:32N 37°58' E 024°13'9 2.1
2015-Apr-11 01:32N 38°01' E 024°02'5819.2
2015-Apr-10 22:32N 37°33' E 025°06'1212.0
2015-Apr-10 21:33N 37°28' E 025°19'9 9.0
2015-Apr-10 20:33N 37°32' E 025°09'5513.5
2015-Apr-10 16:28N 37°59' E 024°08'6 0.2
2015-Apr-09 14:27N 38°01' E 024°01'5217.6
2015-Apr-09 11:30N 37°37' E 024°59'1718.2
2015-Apr-09 10:33N 37°28' E 025°17'6 5.9
2015-Apr-09 09:34N 37°31' E 025°11'10 9.5
2015-Apr-09 08:33N 37°36' E 025°01'4914.8
2015-Apr-09 05:16N 37°60' E 024°07'6 0.5
2015-Apr-08 17:09N 37°58' E 024°14'9 5.2
2015-Apr-08 15:23N 38°01' E 024°03'4815.4
2015-Apr-08 12:18N 37°40' E 024°57'  

Dump ship's entire track history